Time;durP1;ratioP1;P1;durP2;ratioP2;P2;SDS_P1;SDS_P2;PMS_P1;PMS_P2;Temp;Humidity;BMP_temperature;BMP_pressure;BME280_temperature;BME280_humidity;BME280_pressure;Samples;Min_cycle;Max_cycle;Signal;HPM_P1;HPM_P2
2023/05/25 00:01:17;;;;;;;4.13;2.03;;;;;;;14.13;nan;99724.13;5055567;28;20275;-84
2023/05/25 00:03:44;;;;;;;3.13;2.43;;;;;;;14.12;nan;99725.94;5054539;28;20231;-83
2023/05/25 00:06:10;;;;;;;6.70;3.42;;;;;;;14.13;nan;99722.31;5050998;28;20441;-84
2023/05/25 00:08:39;;;;;;;7.60;2.85;;;;;;;14.09;nan;99725.31;5056874;28;20220;-83
2023/05/25 00:11:04;;;;;;;6.72;3.30;;;;;;;14.06;nan;99721.09;5052079;28;20217;-84
2023/05/25 00:13:30;;;;;;;5.03;2.77;;;;;;;14.08;nan;99729.75;5051410;28;20240;-85
2023/05/25 00:15:56;;;;;;;2.80;2.33;;;;;;;14.06;nan;99725.53;5038306;28;20765;-83
2023/05/25 00:18:21;;;;;;;3.30;2.13;;;;;;;14.04;nan;99730.09;5061610;28;20213;-86
2023/05/25 00:20:47;;;;;;;4.43;2.10;;;;;;;14.03;nan;99723.13;5056920;28;20229;-86
2023/05/25 00:23:12;;;;;;;3.80;2.40;;;;;;;14.04;nan;99723.03;5057071;28;20216;-83
2023/05/25 00:25:38;;;;;;;3.90;2.63;;;;;;;14.06;nan;99720.25;5061415;28;20722;-86
2023/05/25 00:28:03;;;;;;;3.27;2.40;;;;;;;14.08;nan;99723.63;5040381;28;20225;-86
2023/05/25 00:30:29;;;;;;;3.27;2.33;;;;;;;14.12;nan;99725.94;5060896;28;20217;-84
2023/05/25 00:32:54;;;;;;;3.20;2.63;;;;;;;14.14;nan;99725.78;5058261;28;20212;-85
2023/05/25 00:35:20;;;;;;;6.07;2.97;;;;;;;14.11;nan;99726.88;5055647;28;20209;-85
2023/05/25 00:37:45;;;;;;;3.20;2.20;;;;;;;14.10;nan;99722.56;5060814;28;20598;-84
2023/05/25 00:40:14;;;;;;;7.60;2.23;;;;;;;14.11;nan;99718.94;5061347;28;20215;-85
2023/05/25 00:42:40;;;;;;;2.92;2.05;;;;;;;14.12;nan;99720.66;5063706;28;20296;-84
2023/05/25 00:45:06;;;;;;;4.53;2.33;;;;;;;14.14;nan;99720.50;5058384;28;20329;-85
2023/05/25 00:47:32;;;;;;;5.70;3.20;;;;;;;14.13;nan;99724.13;5039734;28;20348;-84
2023/05/25 00:49:57;;;;;;;3.03;2.20;;;;;;;14.11;nan;99713.66;5063369;28;20230;-86
2023/05/25 00:52:25;;;;;;;7.37;3.03;;;;;;;14.11;nan;99715.47;5055041;28;20210;-83
2023/05/25 00:54:54;;;;;;;3.85;2.20;;;;;;;14.12;nan;99707.44;5059527;28;20212;-85
2023/05/25 00:57:22;;;;;;;2.55;2.35;;;;;;;14.13;nan;99711.75;5041177;28;20556;-84
2023/05/25 00:59:52;;;;;;;5.07;2.10;;;;;;;14.14;nan;99707.31;5058070;28;20272;-83
2023/05/25 01:02:19;;;;;;;7.82;3.25;;;;;;;14.14;nan;99712.59;5057440;28;20228;-83
2023/05/25 01:04:51;;;;;;;3.08;2.40;;;;;;;14.13;nan;99716.19;5059183;28;20436;-85
2023/05/25 01:07:22;;;;;;;5.45;2.83;;;;;;;14.10;nan;99709.34;5042466;28;20241;-83
2023/05/25 01:09:51;;;;;;;8.68;2.80;;;;;;;14.10;nan;99713.81;5037264;28;20709;-84
2023/05/25 01:12:17;;;;;;;6.63;2.70;;;;;;;14.04;nan;99711.59;5038162;28;20786;-85
2023/05/25 01:14:45;;;;;;;2.55;1.90;;;;;;;13.98;nan;99712.06;5058289;28;20700;-85
2023/05/25 01:17:11;;;;;;;2.70;2.50;;;;;;;13.87;nan;99700.53;5040031;28;20594;-85
2023/05/25 01:19:39;;;;;;;3.93;2.63;;;;;;;13.84;nan;99703.41;5039971;28;20672;-84
2023/05/25 01:22:24;;;;;;;4.07;2.25;;;;;;;13.87;nan;99705.81;5059614;28;20228;-83
2023/05/25 01:25:01;;;;;;;6.28;2.45;;;;;;;13.84;nan;99695.47;5062165;28;20584;-85
2023/05/25 01:27:56;;;;;;;4.18;1.98;;;;;;;13.81;nan;99706.28;5038730;28;20224;-83
2023/05/25 01:30:24;;;;;;;5.43;2.25;;;;;;;13.81;nan;99700.16;5040995;28;20639;-83
2023/05/25 01:32:51;;;;;;;6.25;3.33;;;;;;;13.82;nan;99701.84;5038145;28;20231;-85
2023/05/25 01:35:19;;;;;;;4.55;2.40;;;;;;;13.80;nan;99698.47;5039671;28;20208;-85
2023/05/25 01:37:45;;;;;;;8.00;2.65;;;;;;;13.78;nan;99697.75;5038550;28;20291;-86
2023/05/25 01:40:12;;;;;;;8.23;3.10;;;;;;;13.78;nan;99693.31;5062435;28;20738;-85
2023/05/25 01:42:37;;;;;;;5.75;3.03;;;;;;;13.79;nan;99702.06;5056946;28;20229;-83
2023/05/25 01:45:04;;;;;;;9.65;2.72;;;;;;;13.78;nan;99700.41;5038947;28;20816;-84
2023/05/25 01:47:55;;;;;;;3.38;2.72;;;;;;;13.81;nan;99690.44;5022715;28;20294;-83
2023/05/25 01:50:35;;;;;;;5.47;3.05;;;;;;;13.83;nan;99698.25;5034419;28;20518;-84
2023/05/25 01:53:08;;;;;;;4.32;2.30;;;;;;;13.84;nan;99702.56;5055179;28;20269;-85
2023/05/25 01:55:45;;;;;;;6.65;2.97;;;;;;;13.85;nan;99694.53;5038791;28;20218;-85
2023/05/25 01:58:14;;;;;;;4.18;2.45;;;;;;;13.86;nan;99695.38;5038502;28;20217;-83
2023/05/25 02:00:40;;;;;;;4.38;2.47;;;;;;;13.85;nan;99702.47;5040093;28;20231;-85
2023/05/25 02:03:06;;;;;;;5.15;3.72;;;;;;;13.84;nan;99703.41;5062291;28;20295;-86
2023/05/25 02:05:31;;;;;;;5.90;3.50;;;;;;;13.84;nan;99707.84;5057382;28;21034;-85
2023/05/25 02:07:57;;;;;;;4.13;2.57;;;;;;;13.81;nan;99700.16;5036567;28;20235;-84
2023/05/25 02:10:22;;;;;;;5.50;3.13;;;;;;;13.79;nan;99694.97;5061189;28;20286;-86
2023/05/25 02:12:48;;;;;;;4.80;3.30;;;;;;;13.78;nan;99695.13;5041695;28;20232;-85
2023/05/25 02:15:14;;;;;;;6.70;3.30;;;;;;;13.76;nan;99692.59;5038765;28;20229;-84
2023/05/25 02:17:40;;;;;;;5.68;3.05;;;;;;;13.75;nan;99698.81;5038384;28;20702;-85
2023/05/25 02:20:07;;;;;;;6.43;2.80;;;;;;;13.70;nan;99700.97;5060432;28;20239;-85
2023/05/25 02:22:32;;;;;;;7.45;4.75;;;;;;;13.65;nan;99692.56;5037927;28;20431;-85
2023/05/25 02:24:58;;;;;;;6.00;4.23;;;;;;;13.62;nan;99695.44;5058298;28;20226;-82
2023/05/25 02:27:23;;;;;;;3.97;3.00;;;;;;;13.58;nan;99689.50;5038722;28;20315;-85
2023/05/25 02:29:49;;;;;;;6.40;3.67;;;;;;;13.57;nan;99692.28;5055630;28;20461;-85
2023/05/25 02:32:15;;;;;;;4.00;2.80;;;;;;;13.55;nan;99688.91;5034364;28;20703;-86
2023/05/25 02:34:40;;;;;;;7.50;3.73;;;;;;;13.51;nan;99693.59;5032983;28;20439;-85
2023/05/25 02:37:06;;;;;;;7.37;3.40;;;;;;;13.46;nan;99686.00;5038824;28;20583;-84
2023/05/25 02:39:31;;;;;;;6.47;3.27;;;;;;;13.41;nan;99682.84;5041750;28;20212;-86
2023/05/25 02:41:58;;;;;;;7.68;3.10;;;;;;;13.37;nan;99688.50;5040267;28;20803;-86
2023/05/25 02:44:24;;;;;;;5.30;3.00;;;;;;;13.33;nan;99687.88;5040099;28;20401;-84
2023/05/25 02:46:50;;;;;;;5.93;3.43;;;;;;;13.28;nan;99690.88;5056177;28;20849;-84
2023/05/25 02:49:15;;;;;;;10.33;3.70;;;;;;;13.24;nan;99692.00;5063299;28;20939;-85
2023/05/25 02:51:40;;;;;;;10.93;4.13;;;;;;;13.20;nan;99685.25;5059736;28;20273;-85
2023/05/25 02:54:06;;;;;;;4.00;2.50;;;;;;;13.16;nan;99682.97;5039090;28;20220;-83
2023/05/25 02:56:32;;;;;;;8.33;3.13;;;;;;;13.11;nan;99685.94;5036629;28;20418;-84
2023/05/25 02:58:59;;;;;;;6.30;4.15;;;;;;;13.02;nan;99682.19;5038768;28;20908;-85
2023/05/25 03:01:30;;;;;;;8.75;3.63;;;;;;;12.94;nan;99689.81;5042122;28;20312;-86
2023/05/25 03:03:56;;;;;;;3.77;3.00;;;;;;;12.92;nan;99694.34;5058240;28;20306;-85
2023/05/25 03:06:24;;;;;;;8.17;3.70;;;;;;;12.97;nan;99694.00;5034112;28;20968;-84
2023/05/25 03:08:54;;;;;;;12.93;8.75;;;;;;;12.99;nan;99687.69;5037776;28;20474;-83
2023/05/25 03:11:19;;;;;;;3.93;3.40;;;;;;;12.99;nan;99692.13;5062181;28;20474;-86
2023/05/25 03:13:46;;;;;;;7.65;3.80;;;;;;;12.99;nan;99687.69;5038973;28;20239;-86
2023/05/25 03:16:12;;;;;;;4.43;3.13;;;;;;;13.01;nan;99700.72;5039967;28;20220;-83
2023/05/25 03:18:37;;;;;;;7.60;3.27;;;;;;;13.00;nan;99691.97;5043056;28;20219;-86
2023/05/25 03:21:03;;;;;;;7.37;2.73;;;;;;;13.01;nan;99706.00;5060373;28;20315;-85
2023/05/25 03:23:29;;;;;;;7.35;3.42;;;;;;;13.03;nan;99714.66;5039184;28;20315;-86
2023/05/25 03:25:56;;;;;;;5.78;3.10;;;;;;;13.03;nan;99714.66;5041284;28;20208;-83
2023/05/25 03:28:23;;;;;;;4.05;3.08;;;;;;;13.01;nan;99717.38;5062133;28;20238;-85
2023/05/25 03:30:48;;;;;;;5.47;2.90;;;;;;;12.99;nan;99721.13;5041686;28;20212;-84
2023/05/25 03:33:14;;;;;;;4.53;3.53;;;;;;;12.96;nan;99723.94;5060512;28;20597;-85
2023/05/25 03:35:43;;;;;;;6.30;4.03;;;;;;;12.95;nan;99723.13;5036715;28;20547;-83
2023/05/25 03:38:09;;;;;;;8.47;3.00;;;;;;;12.91;nan;99721.66;5035661;28;20215;-86
2023/05/25 03:40:34;;;;;;;6.20;4.37;;;;;;;12.86;nan;99722.94;5035374;28;20638;-85
2023/05/25 03:43:00;;;;;;;4.47;3.53;;;;;;;12.80;nan;99726.88;5062387;28;20228;-85
2023/05/25 03:45:25;;;;;;;4.87;3.23;;;;;;;12.77;nan;99716.50;5039774;28;20220;-84
2023/05/25 03:47:51;;;;;;;5.23;2.80;;;;;;;12.76;nan;99720.94;5036719;28;20215;-83
2023/05/25 03:50:17;;;;;;;5.50;4.87;;;;;;;12.77;nan;99719.16;5038089;28;20240;-83
2023/05/25 03:52:42;;;;;;;10.83;3.73;;;;;;;12.78;nan;99720.84;5032962;28;20313;-86
2023/05/25 03:55:08;;;;;;;3.03;2.77;;;;;;;12.76;nan;99725.38;5038308;28;20526;-84
2023/05/25 03:57:33;;;;;;;2.83;2.63;;;;;;;12.71;nan;99730.13;5037821;28;20395;-82
2023/05/25 03:59:59;;;;;;;7.53;4.33;;;;;;;12.72;nan;99726.53;5039119;28;20473;-85
2023/05/25 04:02:25;;;;;;;6.83;3.33;;;;;;;12.74;nan;99729.91;5034942;28;20223;-87
2023/05/25 04:04:52;;;;;;;5.90;3.57;;;;;;;12.76;nan;99730.66;5042562;28;20471;-82
2023/05/25 04:07:20;;;;;;;7.05;3.80;;;;;;;12.74;nan;99725.47;5059401;28;20205;-82
2023/05/25 04:09:46;;;;;;;5.57;2.80;;;;;;;12.75;nan;99727.19;5055827;28;20216;-88
2023/05/25 04:12:11;;;;;;;5.70;2.63;;;;;;;12.80;nan;99729.50;5041655;28;20220;-87
2023/05/25 04:14:37;;;;;;;9.93;3.85;;;;;;;12.85;nan;99727.34;5039031;28;20244;-83
2023/05/25 04:17:03;;;;;;;6.97;3.60;;;;;;;12.87;nan;99729.88;5036694;28;20208;-83
2023/05/25 04:19:29;;;;;;;5.93;3.72;;;;;;;12.87;nan;99730.72;5033576;28;20569;-86
2023/05/25 04:21:54;;;;;;;5.73;3.80;;;;;;;12.88;nan;99727.16;5035071;28;20685;-83
2023/05/25 04:24:20;;;;;;;4.00;3.57;;;;;;;12.86;nan;99729.06;5036169;28;20333;-84
2023/05/25 04:26:48;;;;;;;7.72;4.25;;;;;;;12.80;nan;99732.13;5039263;28;20310;-87
2023/05/25 04:29:13;;;;;;;7.82;4.25;;;;;;;12.77;nan;99735.81;5032013;28;20304;-82
2023/05/25 04:31:46;;;;;;;5.78;3.60;;;;;;;12.76;nan;99741.19;5039327;28;20211;-84
2023/05/25 04:34:13;;;;;;;5.20;3.03;;;;;;;12.75;nan;99736.88;5059700;28;20235;-83
2023/05/25 04:36:42;;;;;;;4.97;3.45;;;;;;;12.77;nan;99740.22;5036031;28;20273;-85
2023/05/25 04:39:08;;;;;;;7.30;3.35;;;;;;;12.76;nan;99728.00;5037275;28;20229;-85
2023/05/25 04:41:38;;;;;;;7.03;3.58;;;;;;;12.80;nan;99738.25;5038136;28;20338;-83
2023/05/25 04:44:08;;;;;;;5.47;3.33;;;;;;;12.83;nan;99737.19;5036769;28;20746;-83
2023/05/25 04:46:38;;;;;;;6.60;4.00;;;;;;;12.83;nan;99731.91;5038183;28;20993;-87
2023/05/25 04:49:07;;;;;;;7.25;3.92;;;;;;;12.92;nan;99747.06;5041575;28;20278;-87
2023/05/25 04:51:32;;;;;;;7.82;3.90;;;;;;;13.20;nan;99739.81;5061888;28;20357;-85
2023/05/25 04:53:58;;;;;;;10.10;3.40;;;;;;;13.64;nan;99747.16;5052367;28;20221;-86
2023/05/25 04:56:25;;;;;;;7.97;3.95;;;;;;;14.13;nan;99739.97;5054668;28;20216;-87
2023/05/25 04:58:51;;;;;;;5.28;3.10;;;;;;;14.60;nan;99749.53;5054915;28;20266;-86
2023/05/25 05:01:18;;;;;;;7.63;3.55;;;;;;;15.05;nan;99748.69;5056259;28;20223;-86
2023/05/25 05:03:44;;;;;;;7.53;3.70;;;;;;;15.45;nan;99743.66;5055284;28;20233;-87
2023/05/25 05:06:09;;;;;;;6.43;3.80;;;;;;;15.82;nan;99755.69;5078679;28;20441;-88
2023/05/25 05:08:36;;;;;;;6.43;3.50;;;;;;;16.13;nan;99756.63;5073111;28;20453;-84
2023/05/25 05:11:01;;;;;;;8.70;4.13;;;;;;;16.47;nan;99751.94;5049819;28;20217;-86
2023/05/25 05:13:27;;;;;;;10.17;4.17;;;;;;;16.76;nan;99761.81;5067577;28;20618;-84
2023/05/25 05:15:53;;;;;;;8.77;3.72;;;;;;;17.08;nan;99763.50;5046763;28;20216;-87
2023/05/25 05:18:19;;;;;;;8.00;3.83;;;;;;;17.29;nan;99753.63;5044344;28;20213;-84
2023/05/25 05:20:45;;;;;;;7.37;3.90;;;;;;;17.55;nan;99758.41;5043417;28;20209;-84
2023/05/25 05:23:12;;;;;;;5.18;4.20;;;;;;;17.76;nan;99756.47;5045332;28;20214;-86
2023/05/25 05:25:38;;;;;;;5.65;3.53;;;;;;;17.99;nan;99759.72;5047954;28;20218;-87
2023/05/25 05:28:03;;;;;;;6.67;3.57;;;;;;;18.20;nan;99759.56;5043382;28;20209;-83
2023/05/25 05:30:34;;;;;;;6.28;3.33;;;;;;;18.29;nan;99760.50;5047395;28;20198;-83
2023/05/25 05:33:00;;;;;;;3.60;2.90;;;;;;;18.44;nan;99759.03;5046709;28;20238;-84
2023/05/25 05:35:29;;;;;;;4.70;3.60;;;;;;;18.59;nan;99754.13;5044591;28;20224;-87
2023/05/25 05:38:04;;;;;;;10.23;3.47;;;;;;;18.82;nan;99767.06;5039947;28;20194;-85
2023/05/25 05:40:29;;;;;;;4.23;2.87;;;;;;;18.99;nan;99768.97;5045932;28;20478;-86
2023/05/25 05:42:55;;;;;;;6.73;3.70;;;;;;;19.23;nan;99766.59;5047564;28;20610;-84
2023/05/25 05:45:20;;;;;;;6.37;3.73;;;;;;;19.41;nan;99755.94;5051671;28;20225;-83
2023/05/25 05:47:46;;;;;;;6.67;3.30;;;;;;;19.53;nan;99758.41;5062232;28;20228;-88
2023/05/25 05:50:11;;;;;;;5.53;3.73;;;;;;;19.56;nan;99761.59;5049985;28;20222;-86
2023/05/25 05:52:38;;;;;;;8.70;3.97;;;;;;;19.69;nan;99757.78;5047223;28;20214;-87
2023/05/25 05:55:05;;;;;;;13.00;3.93;;;;;;;19.89;nan;99748.59;5048835;28;20491;-84
2023/05/25 05:57:30;;;;;;;9.10;3.47;;;;;;;20.03;nan;99750.69;5040226;28;20270;-88
2023/05/25 05:59:57;;;;;;;4.03;3.23;;;;;;;20.24;nan;99746.88;5050102;28;20507;-84
2023/05/25 06:02:23;;;;;;;6.67;4.00;;;;;;;20.39;nan;99750.63;5048703;28;20701;-84
2023/05/25 06:04:48;;;;;;;4.90;3.80;;;;;;;20.58;nan;99749.63;5043474;28;20531;-86
2023/05/25 06:07:13;;;;;;;6.10;3.20;;;;;;;20.62;nan;99748.28;5046849;28;20205;-86
2023/05/25 06:09:39;;;;;;;9.93;4.10;;;;;;;20.72;nan;99751.69;5048490;28;20215;-84
2023/05/25 06:12:06;;;;;;;8.10;4.17;;;;;;;20.99;nan;99742.63;5043442;28;21029;-86
2023/05/25 06:14:32;;;;;;;6.57;3.90;;;;;;;21.15;nan;99741.00;5029504;28;21043;-88
2023/05/25 06:17:00;;;;;;;4.53;3.60;;;;;;;21.18;nan;99740.69;5025911;28;20479;-87
2023/05/25 06:19:26;;;;;;;9.17;3.93;;;;;;;21.15;nan;99736.50;5040621;28;20456;-84
2023/05/25 06:21:51;;;;;;;5.53;4.23;;;;;;;21.18;nan;99738.84;5032676;28;20219;-84
2023/05/25 06:24:19;;;;;;;6.67;2.90;;;;;;;21.41;nan;99731.09;5042835;28;20611;-87
2023/05/25 06:26:45;;;;;;;7.87;4.13;;;;;;;21.60;nan;99737.09;5043306;28;20442;-87
2023/05/25 06:29:10;;;;;;;9.97;3.63;;;;;;;21.78;nan;99735.09;5027526;28;20218;-84
2023/05/25 06:31:36;;;;;;;4.90;3.50;;;;;;;22.00;nan;99730.91;5029292;28;20203;-83
2023/05/25 06:34:01;;;;;;;13.43;4.07;;;;;;;22.13;nan;99730.41;5032782;28;20213;-82
2023/05/25 06:36:27;;;;;;;4.87;3.70;;;;;;;22.36;nan;99732.41;5039982;28;21416;-84
2023/05/25 06:38:52;;;;;;;6.30;4.20;;;;;;;22.20;nan;99735.97;5030450;28;20226;-83
2023/05/25 06:41:18;;;;;;;8.27;3.77;;;;;;;22.22;nan;99750.00;5048423;28;20278;-84
2023/05/25 06:43:44;;;;;;;4.77;3.63;;;;;;;22.37;nan;99755.50;5042242;28;20279;-83
2023/05/25 06:46:16;;;;;;;5.73;3.20;;;;;;;22.62;nan;99750.91;5030109;28;20477;-81
2023/05/25 06:48:43;;;;;;;5.50;4.27;;;;;;;22.67;nan;99749.41;5029961;28;20940;-85
2023/05/25 06:51:09;;;;;;;4.80;3.27;;;;;;;22.77;nan;99762.59;5028983;28;20454;-83
2023/05/25 06:53:34;;;;;;;7.10;4.07;;;;;;;22.74;nan;99755.75;5049516;28;20472;-83
2023/05/25 06:56:00;;;;;;;6.10;4.00;;;;;;;22.67;nan;99753.91;5048567;28;20305;-83
2023/05/25 06:58:26;;;;;;;4.73;3.20;;;;;;;22.73;nan;99758.56;5048560;28;20195;-85
2023/05/25 07:00:51;;;;;;;12.27;4.00;;;;;;;22.68;nan;99756.44;5046204;28;20262;-83
2023/05/25 07:03:16;;;;;;;8.37;3.43;;;;;;;22.68;nan;99761.78;5047891;28;20464;-83
2023/05/25 07:05:42;;;;;;;4.73;3.20;;;;;;;22.66;nan;99758.44;5047087;28;20193;-85
2023/05/25 07:08:07;;;;;;;5.77;3.43;;;;;;;22.81;nan;99760.41;5048647;28;20207;-86
2023/05/25 07:10:33;;;;;;;6.67;3.50;;;;;;;23.01;nan;99761.69;5044026;28;20752;-85
2023/05/25 07:12:58;;;;;;;5.97;3.67;;;;;;;23.05;nan;99757.66;5046725;28;20326;-85
2023/05/25 07:15:24;;;;;;;4.07;2.80;;;;;;;23.00;nan;99765.38;5066398;28;20314;-83
2023/05/25 07:17:49;;;;;;;8.47;4.53;;;;;;;22.87;nan;99767.72;5068622;28;20237;-84
2023/05/25 07:20:14;;;;;;;7.23;4.07;;;;;;;22.71;nan;99772.16;5067763;28;20214;-83
2023/05/25 07:22:42;;;;;;;7.67;3.30;;;;;;;22.81;nan;99763.91;5068634;28;20691;-83
2023/05/25 07:25:08;;;;;;;4.53;3.57;;;;;;;22.84;nan;99766.22;5068961;28;20208;-85
2023/05/25 07:27:34;;;;;;;7.30;4.03;;;;;;;22.98;nan;99764.72;5068572;28;20514;-86
2023/05/25 07:30:00;;;;;;;6.67;3.60;;;;;;;23.21;nan;99767.47;5072366;28;20478;-83
2023/05/25 07:32:26;;;;;;;6.40;3.60;;;;;;;23.33;nan;99773.25;5072022;28;20437;-83
2023/05/25 07:34:52;;;;;;;10.55;4.47;;;;;;;23.27;nan;99769.41;5069075;28;20924;-83
2023/05/25 07:37:18;;;;;;;6.03;4.00;;;;;;;23.16;nan;99773.31;5069820;28;20856;-83
2023/05/25 07:39:43;;;;;;;7.03;3.47;;;;;;;23.15;nan;99777.03;5051456;28;20501;-84
2023/05/25 07:42:10;;;;;;;5.73;4.40;;;;;;;23.29;nan;99775.44;5053608;28;20276;-85
2023/05/25 07:44:35;;;;;;;8.87;3.67;;;;;;;23.31;nan;99778.78;5075738;28;20210;-86
2023/05/25 07:47:00;;;;;;;6.80;3.50;;;;;;;23.30;nan;99782.47;5070611;28;20453;-86
2023/05/25 07:49:26;;;;;;;9.10;4.40;;;;;;;23.19;nan;99780.19;5072288;28;20518;-84
2023/05/25 07:51:51;;;;;;;6.60;4.27;;;;;;;23.14;nan;99791.44;5071604;28;20250;-84
2023/05/25 07:54:17;;;;;;;7.80;3.73;;;;;;;23.18;nan;99786.56;5071288;28;20526;-86
2023/05/25 07:56:42;;;;;;;5.93;3.47;;;;;;;23.19;nan;99781.00;5070963;28;20213;-85
2023/05/25 07:59:08;;;;;;;5.87;3.80;;;;;;;23.11;nan;99775.69;5074639;28;20231;-86
2023/05/25 08:01:34;;;;;;;4.20;3.70;;;;;;;23.12;nan;99782.75;5071015;28;20311;-85
2023/05/25 08:04:00;;;;;;;6.57;3.60;;;;;;;23.23;nan;99784.19;5061093;28;20600;-83
2023/05/25 08:06:25;;;;;;;10.57;4.40;;;;;;;23.19;nan;99783.69;5062752;28;20521;-84
2023/05/25 08:08:51;;;;;;;6.23;4.60;;;;;;;23.11;nan;99782.91;5047558;28;20194;-84
2023/05/25 08:11:16;;;;;;;5.57;4.03;;;;;;;22.86;nan;99791.00;5066000;28;20208;-84
2023/05/25 08:13:42;;;;;;;7.77;4.47;;;;;;;22.42;nan;99787.94;5046909;28;20226;-83
2023/05/25 08:16:08;;;;;;;6.53;4.30;;;;;;;21.89;nan;99795.44;5065489;28;20284;-84
2023/05/25 08:18:33;;;;;;;6.90;4.23;;;;;;;21.50;nan;99788.06;5066985;28;20528;-85
2023/05/25 08:20:59;;;;;;;7.27;4.70;;;;;;;21.37;nan;99783.16;5063178;28;20331;-86
2023/05/25 08:23:25;;;;;;;12.80;3.90;;;;;;;21.36;nan;99786.81;5067173;28;20220;-83
2023/05/25 08:25:50;;;;;;;5.20;3.53;;;;;;;21.32;nan;99781.97;5065500;28;20417;-84
2023/05/25 08:28:16;;;;;;;5.97;3.53;;;;;;;21.52;nan;99779.84;5062879;28;20314;-84
2023/05/25 08:30:43;;;;;;;5.40;3.90;;;;;;;21.74;nan;99773.03;5064270;28;20207;-86
2023/05/25 08:33:09;;;;;;;6.90;3.73;;;;;;;21.81;nan;99776.72;5044496;28;20213;-82
2023/05/25 08:35:38;;;;;;;7.93;4.60;;;;;;;21.84;nan;99782.56;5066339;28;20453;-86
2023/05/25 08:38:03;;;;;;;6.53;4.07;;;;;;;21.93;nan;99772.75;5069970;28;20684;-83
2023/05/25 08:40:28;;;;;;;12.30;4.90;;;;;;;22.15;nan;99775.75;5068108;28;20438;-83
2023/05/25 08:42:54;;;;;;;9.30;5.27;;;;;;;22.18;nan;99768.25;5068716;28;20225;-84
2023/05/25 08:45:20;;;;;;;8.50;5.30;;;;;;;22.27;nan;99775.22;5071140;28;20215;-83
2023/05/25 08:47:47;;;;;;;9.00;5.10;;;;;;;22.12;nan;99774.25;5069682;28;20217;-88
2023/05/25 08:50:14;;;;;;;11.07;6.30;;;;;;;21.85;nan;99776.22;5071277;28;20213;-84
2023/05/25 08:52:44;;;;;;;7.13;5.70;;;;;;;21.86;nan;99780.56;5069514;28;20437;-84
2023/05/25 08:55:11;;;;;;;5.47;4.80;;;;;;;21.68;nan;99779.88;5069213;28;20519;-85
2023/05/25 08:57:40;;;;;;;6.93;4.83;;;;;;;21.62;nan;99780.53;5072029;28;20525;-84
2023/05/25 09:00:10;;;;;;;7.70;5.07;;;;;;;21.56;nan;99781.22;5069245;28;21149;-84
2023/05/25 09:02:47;;;;;;;8.37;4.63;;;;;;;21.38;nan;99789.34;5066901;28;20981;-84
2023/05/25 09:05:14;;;;;;;6.87;4.90;;;;;;;21.32;nan;99798.81;5064324;28;20430;-85
2023/05/25 09:07:42;;;;;;;5.47;4.80;;;;;;;21.43;nan;99795.88;5063410;28;20962;-85
2023/05/25 09:10:09;;;;;;;5.17;4.30;;;;;;;21.60;nan;99799.44;5062930;28;20933;-84
2023/05/25 09:12:35;;;;;;;6.53;4.33;;;;;;;21.74;nan;99802.44;5063221;28;20446;-84
2023/05/25 09:15:01;;;;;;;5.97;4.30;;;;;;;21.96;nan;99801.81;5074643;22;20713;-84
2023/05/25 09:17:29;;;;;;;4.80;4.30;;;;;;;22.10;nan;99806.50;5044452;28;21110;-83
2023/05/25 09:19:55;;;;;;;8.73;5.10;;;;;;;22.31;nan;99798.00;5060740;28;20816;-83
2023/05/25 09:22:20;;;;;;;4.50;4.10;;;;;;;22.40;nan;99792.63;5067847;28;20483;-82
2023/05/25 09:24:46;;;;;;;6.10;3.97;;;;;;;22.48;nan;99809.50;5065543;28;20227;-83
2023/05/25 09:27:16;;;;;;;4.97;3.90;;;;;;;22.42;nan;99790.63;5046342;28;20833;-83
2023/05/25 09:29:42;;;;;;;6.40;4.03;;;;;;;22.26;nan;99800.34;5031647;28;20723;-81
2023/05/25 09:32:07;;;;;;;7.43;4.57;;;;;;;22.29;nan;99794.66;5074181;28;20435;-83
2023/05/25 09:34:33;;;;;;;5.90;4.00;;;;;;;22.02;nan;99814.50;5077397;28;20702;-83
2023/05/25 09:37:00;;;;;;;6.67;4.43;;;;;;;21.73;nan;99800.78;5077401;28;21497;-82
2023/05/25 09:39:25;;;;;;;6.43;4.00;;;;;;;21.39;nan;99821.25;5073584;28;20212;-83
2023/05/25 09:41:51;;;;;;;6.70;4.00;;;;;;;21.46;nan;99828.63;5065038;28;20480;-83
2023/05/25 09:44:17;;;;;;;5.60;4.33;;;;;;;21.61;nan;99824.31;5065472;28;20216;-83
2023/05/25 09:46:43;;;;;;;4.70;4.20;;;;;;;21.72;nan;99813.31;5063255;28;20400;-83
2023/05/25 09:49:09;;;;;;;5.73;3.97;;;;;;;21.93;nan;99815.53;5066680;28;20435;-83
2023/05/25 09:51:35;;;;;;;5.20;4.67;;;;;;;21.90;nan;99818.53;5065422;28;20429;-83
2023/05/25 09:54:08;;;;;;;4.03;3.70;;;;;;;22.01;nan;99823.56;5066543;28;20209;-83
2023/05/25 09:56:33;;;;;;;4.90;3.43;;;;;;;22.20;nan;99818.91;5064230;28;21264;-83
2023/05/25 09:58:59;;;;;;;4.90;3.50;;;;;;;22.36;nan;99834.09;5065508;28;20565;-83
2023/05/25 10:01:26;;;;;;;5.50;4.33;;;;;;;22.34;nan;99820.06;5063961;28;20521;-82
2023/05/25 10:03:55;;;;;;;6.87;4.30;;;;;;;22.47;nan;99823.06;5063096;28;20213;-83
2023/05/25 10:06:21;;;;;;;5.37;4.40;;;;;;;22.48;nan;99820.22;5046183;28;20494;-82
2023/05/25 10:08:48;;;;;;;4.40;4.00;;;;;;;22.27;nan;99818.06;5065052;28;20459;-82
2023/05/25 10:11:14;;;;;;;5.50;3.20;;;;;;;22.04;nan;99831.25;5044772;28;20478;-83
2023/05/25 10:13:45;;;;;;;4.20;3.70;;;;;;;21.94;nan;99832.41;5063654;28;21028;-82
2023/05/25 10:16:17;;;;;;;9.20;4.57;;;;;;;21.85;nan;99840.41;5046154;28;21012;-82
2023/05/25 10:18:50;;;;;;;4.77;4.37;;;;;;;21.68;nan;99833.34;5044884;28;20458;-83
2023/05/25 10:21:17;;;;;;;4.43;3.37;;;;;;;21.57;nan;99844.34;5045384;28;20477;-83
2023/05/25 10:23:53;;;;;;;7.00;5.13;;;;;;;21.56;nan;99840.84;5040651;28;20981;-82
2023/05/25 10:26:20;;;;;;;6.70;3.90;;;;;;;21.64;nan;99838.19;5039886;28;20463;-82
2023/05/25 10:28:50;;;;;;;8.20;4.00;;;;;;;21.88;nan;99840.09;5039114;28;20821;-83
2023/05/25 10:31:16;;;;;;;4.20;3.80;;;;;;;22.01;nan;99836.09;5033996;28;20804;-83
2023/05/25 10:33:43;;;;;;;4.77;3.97;;;;;;;22.14;nan;99839.09;5036701;28;20955;-83
2023/05/25 10:36:16;;;;;;;6.93;4.80;;;;;;;22.40;nan;99840.81;5039206;28;20565;-82
2023/05/25 10:38:43;;;;;;;5.33;4.57;;;;;;;22.50;nan;99844.16;5037069;28;20999;-83
2023/05/25 10:41:10;;;;;;;8.10;4.90;;;;;;;22.39;nan;99839.16;5036954;28;20470;-83
2023/05/25 10:43:44;;;;;;;4.97;4.37;;;;;;;22.58;nan;99846.81;5037921;28;20464;-83
2023/05/25 10:46:13;;;;;;;10.43;4.00;;;;;;;22.47;nan;99839.97;5005335;28;20452;-83
2023/05/25 10:48:45;;;;;;;6.07;4.70;;;;;;;22.01;nan;99855.66;5019124;28;20471;-83
2023/05/25 10:51:10;;;;;;;8.10;4.90;;;;;;;21.88;nan;99853.44;5036806;28;20460;-83
2023/05/25 10:53:36;;;;;;;4.87;4.10;;;;;;;21.88;nan;99849.94;5039334;28;21225;-84
2023/05/25 10:56:07;;;;;;;5.90;4.77;;;;;;;21.98;nan;99850.63;5038149;28;20468;-84
2023/05/25 10:58:33;;;;;;;4.93;3.97;;;;;;;22.07;nan;99848.81;5038836;28;20858;-83
2023/05/25 11:01:01;;;;;;;4.80;4.40;;;;;;;22.11;nan;99863.50;5039639;28;20596;-84
2023/05/25 11:03:46;;;;;;;6.30;4.20;;;;;;;22.17;nan;99857.50;5039912;28;20214;-84
2023/05/25 11:06:44;;;;;;;5.87;4.50;;;;;;;22.27;nan;99866.22;5038768;28;21085;-84
2023/05/25 11:09:29;;;;;;;8.20;4.40;;;;;;;22.52;nan;99859.03;4991935;28;20430;-84
2023/05/25 11:11:55;;;;;;;6.37;4.60;;;;;;;22.81;nan;99857.63;5037270;28;20566;-84
2023/05/25 11:14:28;;;;;;;5.80;4.60;;;;;;;23.03;nan;99864.16;5037383;28;20638;-84
2023/05/25 11:17:20;;;;;;;8.20;4.90;;;;;;;22.95;nan;99870.34;5038563;28;20214;-83
2023/05/25 11:19:52;;;;;;;6.27;4.50;;;;;;;22.92;nan;99865.31;5035350;28;20554;-84
2023/05/25 11:22:36;;;;;;;6.83;4.83;;;;;;;22.96;nan;99865.84;5038463;28;20490;-83
2023/05/25 11:25:38;;;;;;;7.40;5.30;;;;;;;22.80;nan;99868.53;5035073;28;20471;-83
2023/05/25 11:28:05;;;;;;;4.97;3.97;;;;;;;22.72;nan;99870.22;5039115;28;20450;-84
2023/05/25 11:30:31;;;;;;;4.87;3.97;;;;;;;22.89;nan;99864.81;5036982;28;20508;-84
2023/05/25 11:33:00;;;;;;;4.80;4.30;;;;;;;23.04;nan;99857.78;5033363;28;20464;-84
2023/05/25 11:35:27;;;;;;;7.10;4.60;;;;;;;23.04;nan;99865.00;5035575;28;20195;-82
2023/05/25 11:37:53;;;;;;;6.10;5.20;;;;;;;23.15;nan;99862.78;5023154;28;21224;-81
2023/05/25 11:40:22;;;;;;;8.83;5.43;;;;;;;23.24;nan;99852.03;5038613;28;20890;-83
2023/05/25 11:42:50;;;;;;;6.03;4.90;;;;;;;23.30;nan;99856.69;5035921;28;21511;-82
2023/05/25 11:45:16;;;;;;;6.90;4.40;;;;;;;23.36;nan;99839.94;5039560;28;20431;-82
2023/05/25 11:47:42;;;;;;;6.63;5.00;;;;;;;23.35;nan;99852.47;5041190;28;20461;-82
2023/05/25 11:50:14;;;;;;;5.80;4.70;;;;;;;23.15;nan;99860.09;5039520;28;20435;-82